Time;durP1;ratioP1;P1;durP2;ratioP2;P2;SDS_P1;SDS_P2;PMS_P1;PMS_P2;Temp;Humidity;BMP_temperature;BMP_pressure;BME280_temperature;BME280_humidity;BME280_pressure;Samples;Min_cycle;Max_cycle;Signal;HPM_P1;HPM_P2
2022/06/18 00:01:12;;;;;;;8.70;7.30;;;;;;;10.89;85.45;98584.70;105701;1270;22612;-82
2022/06/18 00:03:47;;;;;;;12.10;8.60;;;;;;;10.92;85.48;98584.23;109298;1269;22816;31
2022/06/18 00:06:20;;;;;;;11.10;9.20;;;;;;;10.88;86.24;98585.79;109284;1269;23553;31
2022/06/18 00:08:56;;;;;;;12.40;8.00;;;;;;;10.85;86.86;98586.85;109279;1269;22452;31
2022/06/18 00:14:26;;;;;;;10.50;8.90;;;;;;;10.84;87.53;98587.94;109442;1268;22579;31
2022/06/18 00:17:01;;;;;;;10.80;7.90;;;;;;;10.82;87.21;98585.89;109410;1268;22521;31
2022/06/18 00:19:36;;;;;;;10.70;7.80;;;;;;;10.81;86.74;98581.04;109408;1270;22582;31
2022/06/18 00:22:16;;;;;;;10.20;8.60;;;;;;;10.80;86.34;98580.95;108006;1269;22925;31
2022/06/18 00:24:52;;;;;;;10.60;8.70;;;;;;;10.75;85.89;98580.56;109347;1268;22614;31
2022/06/18 00:27:28;;;;;;;12.10;8.80;;;;;;;10.67;86.26;98579.08;109237;1269;22869;31
2022/06/18 00:30:06;;;;;;;9.50;8.40;;;;;;;10.60;86.63;98580.21;109176;1270;22465;31
2022/06/18 00:32:42;;;;;;;11.70;9.00;;;;;;;10.54;87.27;98578.15;109269;1269;22869;31
2022/06/18 00:35:18;;;;;;;12.30;9.00;;;;;;;10.55;88.39;98579.11;109330;1268;22421;31
2022/06/18 00:37:56;;;;;;;12.00;9.90;;;;;;;10.56;88.58;98579.42;108401;1269;24513;31
2022/06/18 00:40:36;;;;;;;11.60;9.10;;;;;;;10.57;88.75;98578.71;109229;1270;22404;31
2022/06/18 00:46:26;;;;;;;14.70;10.30;;;;;;;10.64;88.43;98578.55;109394;1270;22661;31
2022/06/18 00:48:58;;;;;;;13.90;10.70;;;;;;;10.66;89.24;98583.02;109409;1281;22229;-82
2022/06/18 00:51:41;;;;;;;13.40;11.20;;;;;;;10.64;89.43;98582.48;109396;1269;22334;31
2022/06/18 00:54:25;;;;;;;12.20;10.70;;;;;;;10.63;88.99;98580.67;109387;1270;22517;-88
2022/06/18 01:00:09;;;;;;;14.20;10.50;;;;;;;10.56;88.23;98578.46;109470;1267;22671;-90
2022/06/18 01:02:49;;;;;;;11.50;9.90;;;;;;;10.50;88.50;98575.23;109536;1267;22542;31
2022/06/18 01:05:25;;;;;;;13.70;10.50;;;;;;;10.46;88.62;98578.91;109427;1281;22548;-88
2022/06/18 01:10:55;;;;;;;12.10;10.70;;;;;;;10.38;88.90;98577.95;109379;1268;22501;31
2022/06/18 01:13:35;;;;;;;14.80;10.50;;;;;;;10.36;89.22;98575.98;109296;1268;22970;-82
2022/06/18 01:16:16;;;;;;;14.10;11.30;;;;;;;10.35;89.76;98579.48;109065;1270;22585;-90
2022/06/18 01:18:52;;;;;;;13.50;10.50;;;;;;;10.36;90.79;98580.17;109462;1267;22801;31
2022/06/18 01:21:40;;;;;;;15.40;11.10;;;;;;;10.39;90.39;98575.09;109456;1268;23800;-83
2022/06/18 01:24:21;;;;;;;13.20;11.00;;;;;;;10.38;90.49;98574.34;109349;1267;22485;31
2022/06/18 01:26:58;;;;;;;12.10;10.80;;;;;;;10.33;90.23;98570.11;109325;1268;22598;31
2022/06/18 01:29:36;;;;;;;12.50;10.80;;;;;;;10.30;89.78;98568.25;107806;1268;22631;-83
2022/06/18 01:32:15;;;;;;;12.00;10.70;;;;;;;10.30;89.42;98562.98;109455;1265;22369;31
2022/06/18 01:34:52;;;;;;;15.40;11.60;;;;;;;10.30;89.31;98565.95;109390;1267;22425;31
2022/06/18 01:37:28;;;;;;;15.60;11.60;;;;;;;10.27;89.67;98562.77;106663;1270;23272;-83
2022/06/18 01:43:25;;;;;;;13.90;12.50;;;;;;;10.30;90.14;98561.84;108763;1279;22419;31
2022/06/18 01:46:03;;;;;;;12.80;11.40;;;;;;;10.30;90.57;98560.98;109346;1269;22593;31
2022/06/18 01:48:44;;;;;;;17.20;12.70;;;;;;;10.29;90.44;98554.52;109212;1270;22835;31
2022/06/18 01:51:24;;;;;;;12.90;11.60;;;;;;;10.32;90.68;98553.74;109166;1270;22473;31
2022/06/18 01:54:04;;;;;;;15.30;11.70;;;;;;;10.35;90.43;98553.09;104550;1267;5007803;31
2022/06/18 01:56:46;;;;;;;14.30;11.10;;;;;;;10.36;90.40;98549.19;109194;1268;22915;31
2022/06/18 01:59:27;;;;;;;14.20;12.70;;;;;;;10.32;90.77;98547.45;109470;1267;22501;31
2022/06/18 02:02:03;;;;;;;13.70;12.30;;;;;;;10.29;90.89;98547.04;109438;1267;23742;31
2022/06/18 02:04:41;;;;;;;14.90;12.20;;;;;;;10.21;90.88;98538.98;109436;1267;23579;31
2022/06/18 02:07:29;;;;;;;15.00;12.40;;;;;;;10.19;90.95;98544.48;109471;1266;22702;31
2022/06/18 02:10:30;;;;;;;13.60;11.60;;;;;;;10.16;90.83;98542.63;109618;1266;23554;31
2022/06/18 02:13:04;;;;;;;13.40;11.60;;;;;;;10.13;90.59;98537.70;109246;1281;22382;-83
2022/06/18 02:15:38;;;;;;;14.10;12.60;;;;;;;10.16;90.41;98537.73;109308;1265;23022;-85
2022/06/18 02:18:14;;;;;;;15.60;13.00;;;;;;;10.17;90.40;98535.40;107184;1278;26504;-88
2022/06/18 02:20:52;;;;;;;16.00;12.20;;;;;;;10.18;90.81;98536.10;108268;1277;22566;-89
2022/06/18 02:23:23;;;;;;;13.00;11.40;;;;;;;10.15;91.08;98534.61;107180;1277;23445;-91
2022/06/18 02:25:52;;;;;;;13.40;11.90;;;;;;;10.10;91.19;98533.46;106949;1277;22566;-89
2022/06/18 02:28:32;;;;;;;14.20;11.60;;;;;;;10.08;91.39;98533.79;109380;1266;22492;31
2022/06/18 02:31:03;;;;;;;14.50;12.20;;;;;;;10.06;91.57;98537.52;108896;1267;22732;-89
2022/06/18 02:33:38;;;;;;;14.00;12.20;;;;;;;10.05;91.94;98532.57;106482;1280;22630;-87
2022/06/18 03:04:00;;;;;;;15.90;14.20;;;;;;;10.09;93.77;98534.64;92230;1291;22832;31
2022/06/18 03:06:54;;;;;;;16.90;15.30;;;;;;;10.14;93.87;98539.30;108053;1283;22564;31
2022/06/18 03:22:44;;;;;;;18.00;11.20;;;;;;;10.17;93.31;98536.85;108436;1281;22470;31
2022/06/18 03:25:52;;;;;;;14.50;12.90;;;;;;;10.16;93.38;98531.69;108330;1281;22554;31
2022/06/18 03:28:28;;;;;;;12.80;11.40;;;;;;;10.22;93.33;98534.77;108384;1281;22589;31
2022/06/18 03:38:00;;;;;;;12.70;11.40;;;;;;;10.45;92.84;98530.96;92229;1290;22758;31
2022/06/18 03:40:51;;;;;;;16.30;11.50;;;;;;;10.56;93.04;98527.73;108294;1281;22422;31
2022/06/18 03:47:04;;;;;;;15.00;12.40;;;;;;;10.84;93.66;98528.29;108449;1281;23771;31
2022/06/18 03:52:58;;;;;;;17.40;15.30;;;;;;;11.14;94.11;98530.41;92179;1292;22814;31
2022/06/18 03:55:35;;;;;;;16.90;12.60;;;;;;;11.40;94.25;98530.28;108266;1281;22472;31
2022/06/18 04:01:40;;;;;;;21.70;15.60;;;;;;;11.83;93.59;98522.66;92175;1290;24552;31
2022/06/18 04:04:28;;;;;;;17.70;15.10;;;;;;;12.02;93.65;98525.91;108307;1281;22456;31
2022/06/18 04:07:05;;;;;;;17.10;14.10;;;;;;;12.20;93.18;98524.45;108260;1281;24731;31
2022/06/18 04:09:53;;;;;;;16.80;15.00;;;;;;;12.43;93.60;98524.69;107821;1293;22437;-84
2022/06/18 04:12:25;;;;;;;18.10;14.80;;;;;;;12.65;93.42;98525.30;107847;1293;22669;-84
2022/06/18 04:15:15;;;;;;;17.90;16.00;;;;;;;12.87;93.32;98522.76;106503;1281;22396;31
2022/06/18 04:18:16;;;;;;;20.20;15.70;;;;;;;13.08;93.06;98526.08;107707;1296;22517;-80
2022/06/18 04:20:45;;;;;;;21.10;16.80;;;;;;;13.23;92.84;98523.28;107588;1295;22335;-83
2022/06/18 04:23:21;;;;;;;17.10;14.30;;;;;;;13.35;92.81;98516.66;108487;1281;22563;31
2022/06/18 04:25:56;;;;;;;17.70;14.50;;;;;;;13.58;92.40;98523.62;108141;1281;23128;31
2022/06/18 04:28:32;;;;;;;17.90;15.00;;;;;;;13.75;92.18;98529.27;108372;1281;22402;31
2022/06/18 04:31:19;;;;;;;18.80;14.60;;;;;;;13.86;91.71;98527.85;91955;1298;22654;-82
2022/06/18 04:33:48;;;;;;;15.30;12.40;;;;;;;13.97;91.61;98527.48;108258;1281;22569;-90
2022/06/18 04:36:36;;;;;;;18.00;12.10;;;;;;;14.11;91.54;98530.20;108277;1281;22736;-85
2022/06/18 04:39:15;;;;;;;;;;;;;;;14.28;91.34;98527.83;108112;1281;22558;-87
2022/06/18 04:42:11;;;;;;;20.90;13.90;;;;;;;14.38;91.03;98528.12;106795;1282;23139;31
2022/06/18 04:44:58;;;;;;;22.30;15.90;;;;;;;14.46;90.62;98527.61;107736;1284;22567;31
2022/06/18 04:58:04;;;;;;;17.90;15.90;;;;;;;15.01;89.18;98533.83;92244;1291;22889;31
2022/06/18 05:00:42;;;;;;;21.00;14.80;;;;;;;15.15;89.07;98536.52;108365;1281;23058;31
2022/06/18 05:09:51;;;;;;;15.20;12.20;;;;;;;15.57;88.20;98538.05;92212;1289;23451;31
2022/06/18 05:19:49;;;;;;;15.90;13.10;;;;;;;15.70;84.73;98545.54;108253;1281;23756;31
2022/06/18 05:23:02;;;;;;;16.00;11.90;;;;;;;15.75;83.16;98547.79;108408;1281;22773;31
2022/06/18 05:25:38;;;;;;;18.40;10.90;;;;;;;15.82;82.18;98548.30;108417;1281;24042;31
2022/06/18 05:35:18;;;;;;;17.90;11.20;;;;;;;16.04;79.46;98545.27;92278;1291;23144;31
2022/06/18 05:38:21;;;;;;;15.60;10.70;;;;;;;16.12;79.13;98545.24;108365;1281;22589;31
2022/06/18 05:40:56;;;;;;;15.70;10.30;;;;;;;16.22;79.73;98544.77;108463;1281;22512;31
2022/06/18 05:43:31;;;;;;;12.30;9.10;;;;;;;16.39;80.13;98543.70;108452;1281;22415;31
2022/06/18 05:46:12;;;;;;;19.20;9.80;;;;;;;16.54;78.98;98543.11;108292;1283;22572;31
2022/06/18 05:48:40;;;;;;;11.70;9.30;;;;;;;16.66;78.88;98543.83;107266;1283;22630;-90
2022/06/18 05:51:09;;;;;;;10.50;8.80;;;;;;;16.77;78.96;98540.01;106783;1294;22496;-89
2022/06/18 05:53:37;;;;;;;14.00;8.30;;;;;;;16.90;79.48;98541.98;106778;1294;22644;-91
2022/06/18 05:56:10;;;;;;;12.20;9.70;;;;;;;17.05;79.70;98538.00;106757;1294;24412;-92
2022/06/18 05:58:51;;;;;;;13.50;9.60;;;;;;;17.19;79.75;98539.61;105703;1293;23455;-92
2022/06/18 06:01:46;;;;;;;11.00;7.90;;;;;;;17.32;78.95;98536.93;107283;1281;22453;31
2022/06/18 06:04:19;;;;;;;10.50;7.50;;;;;;;17.42;75.97;98538.84;108374;1281;22987;31
2022/06/18 06:06:59;;;;;;;12.50;7.50;;;;;;;17.43;75.57;98529.22;104526;1284;22295;-81
2022/06/18 06:12:14;;;;;;;10.40;7.60;;;;;;;17.68;76.26;98529.34;104865;1294;24335;-91
2022/06/18 06:14:42;;;;;;;11.20;8.30;;;;;;;17.77;76.21;98528.75;104801;1294;25537;-82
2022/06/18 06:17:20;;;;;;;11.60;7.60;;;;;;;17.88;75.79;98524.84;104353;1293;23339;-82
2022/06/18 06:19:49;;;;;;;10.10;7.20;;;;;;;18.06;76.28;98525.14;104175;1294;22572;-83
2022/06/18 06:22:17;;;;;;;10.70;7.40;;;;;;;18.14;74.84;98520.55;104175;1294;24240;-85
2022/06/18 06:24:45;;;;;;;10.20;7.10;;;;;;;18.18;74.97;98517.08;104203;1294;22738;-84
2022/06/18 06:27:13;;;;;;;11.20;6.60;;;;;;;18.26;73.70;98520.23;104369;1294;24416;-83
2022/06/18 06:29:41;;;;;;;7.40;6.40;;;;;;;18.31;73.53;98518.55;104384;1294;22585;-85
2022/06/18 06:32:09;;;;;;;8.10;6.60;;;;;;;18.40;74.08;98522.48;104272;1293;22736;-85
2022/06/18 06:34:37;;;;;;;12.10;6.60;;;;;;;18.49;73.18;98522.02;104209;1294;22581;-84
2022/06/18 06:37:05;;;;;;;10.10;7.10;;;;;;;18.54;71.93;98524.21;104148;1294;22569;-85
2022/06/18 06:39:33;;;;;;;7.80;5.90;;;;;;;18.61;72.47;98523.08;104295;1294;22565;-83
2022/06/18 06:42:01;;;;;;;7.60;6.00;;;;;;;18.74;72.03;98521.27;104262;1294;22677;-82
2022/06/18 06:44:29;;;;;;;15.10;6.40;;;;;;;18.85;72.14;98518.53;104279;1294;25227;-83
2022/06/18 06:46:59;;;;;;;9.80;6.10;;;;;;;19.01;72.54;98519.77;104291;1294;22687;-83
2022/06/18 06:49:27;;;;;;;7.20;5.70;;;;;;;19.11;70.39;98519.71;104433;1294;22648;-82
2022/06/18 06:51:55;;;;;;;11.50;6.30;;;;;;;19.19;70.01;98522.16;104307;1294;24272;-82
2022/06/18 06:54:23;;;;;;;11.10;6.00;;;;;;;19.25;68.77;98518.70;104282;1294;24311;-82
2022/06/18 06:59:38;;;;;;;11.70;5.30;;;;;;;19.47;67.96;98511.66;104064;1294;22591;-81
2022/06/18 07:02:16;;;;;;;6.60;4.90;;;;;;;19.50;67.83;98512.79;104184;1294;22723;-82
2022/06/18 07:04:44;;;;;;;6.50;4.80;;;;;;;19.63;68.69;98512.71;104257;1293;24446;-82
2022/06/18 07:07:15;;;;;;;10.10;5.50;;;;;;;19.79;69.43;98512.46;104311;1294;22576;-82
2022/06/18 07:09:44;;;;;;;7.00;5.50;;;;;;;19.96;68.68;98512.94;104347;1294;22667;-85
2022/06/18 07:12:12;;;;;;;9.10;5.40;;;;;;;20.08;68.42;98510.02;104320;1294;24310;-81
2022/06/18 07:14:40;;;;;;;9.00;4.70;;;;;;;20.15;64.91;98514.77;104327;1294;22608;-82
2022/06/18 07:17:16;;;;;;;8.60;5.00;;;;;;;20.11;63.70;98516.05;104309;1295;22567;-84
2022/06/18 07:19:45;;;;;;;9.30;5.70;;;;;;;20.14;63.98;98513.89;104363;1294;24436;-84
2022/06/18 07:22:13;;;;;;;6.80;4.90;;;;;;;20.20;63.12;98518.33;104328;1294;22752;-85
2022/06/18 07:24:41;;;;;;;7.70;5.60;;;;;;;20.25;61.51;98521.86;104303;1294;22630;-85
2022/06/18 07:27:09;;;;;;;7.90;5.40;;;;;;;20.30;62.60;98519.88;104343;1294;22578;-84
2022/06/18 07:29:38;;;;;;;8.70;4.80;;;;;;;20.38;60.36;98523.78;104342;1294;24173;-85
2022/06/18 07:32:10;;;;;;;8.00;4.60;;;;;;;20.38;59.93;98520.83;104256;1294;25305;-84
2022/06/18 07:34:39;;;;;;;8.00;3.80;;;;;;;20.42;59.85;98524.59;104274;1294;22593;-83
2022/06/18 07:37:07;;;;;;;7.80;3.90;;;;;;;20.48;58.00;98519.85;104343;1294;22666;-82
2022/06/18 07:39:36;;;;;;;8.40;4.60;;;;;;;20.52;58.74;98522.20;104278;1294;22561;-83
2022/06/18 07:42:05;;;;;;;5.40;3.60;;;;;;;20.57;57.80;98523.14;104262;1294;24362;-84
2022/06/18 07:44:33;;;;;;;12.10;4.50;;;;;;;20.63;58.34;98521.04;104323;1294;24157;-84
2022/06/18 07:47:02;;;;;;;6.80;3.90;;;;;;;20.74;57.11;98526.58;104289;1294;25522;-89
2022/06/18 07:49:31;;;;;;;7.40;4.10;;;;;;;20.82;57.36;98526.89;104211;1294;22615;-86
2022/06/18 07:51:58;;;;;;;7.90;4.30;;;;;;;20.89;56.12;98528.22;104311;1294;24401;-86
2022/06/18 07:54:26;;;;;;;7.20;4.00;;;;;;;20.91;56.55;98526.63;104171;1293;24395;-85
2022/06/18 07:56:54;;;;;;;9.30;4.00;;;;;;;20.95;56.07;98523.85;104083;1294;26650;-86
2022/06/18 07:59:23;;;;;;;6.40;4.20;;;;;;;21.00;57.00;98522.08;104226;1294;22647;-86
2022/06/18 08:01:52;;;;;;;7.70;4.00;;;;;;;21.16;56.35;98521.33;104349;1294;23490;-86
2022/06/18 08:04:20;;;;;;;6.60;4.10;;;;;;;21.29;56.16;98514.74;104275;1294;22716;-85
2022/06/18 08:06:48;;;;;;;10.40;3.60;;;;;;;21.41;57.27;98517.88;104259;1294;26647;-85
2022/06/18 08:09:16;;;;;;;8.10;3.60;;;;;;;21.61;57.67;98516.95;104295;1294;24241;-86
2022/06/18 08:11:44;;;;;;;7.50;3.60;;;;;;;21.76;55.07;98514.45;104330;1294;23341;-85
2022/06/18 08:14:12;;;;;;;6.20;3.50;;;;;;;21.79;55.15;98511.55;104296;1294;22626;-86
2022/06/18 08:16:41;;;;;;;6.00;3.40;;;;;;;21.92;55.89;98505.41;104373;1294;24216;-85
2022/06/18 08:19:09;;;;;;;6.00;3.30;;;;;;;22.03;53.69;98507.77;104322;1294;23140;-85
2022/06/18 08:21:42;;;;;;;8.10;3.20;;;;;;;22.02;52.13;98505.70;104363;1294;22651;-86
2022/06/18 08:28:42;;;;;;;4.80;2.90;;;;;;;22.13;52.29;98499.50;104299;1294;22579;-83
2022/06/18 08:31:10;;;;;;;3.80;2.70;;;;;;;22.20;51.30;98496.23;104179;1294;24242;-83
2022/06/18 08:33:39;;;;;;;6.90;3.60;;;;;;;22.22;50.85;98493.69;104112;1294;22901;-84
2022/06/18 08:36:12;;;;;;;3.90;2.80;;;;;;;22.29;49.74;98491.53;104055;1294;22922;-84
2022/06/18 08:38:43;;;;;;;7.40;3.00;;;;;;;22.37;50.21;98490.45;104269;1294;22639;-82
2022/06/18 08:41:16;;;;;;;5.50;3.00;;;;;;;22.51;49.77;98489.45;104405;1293;22846;-84
2022/06/18 08:43:52;;;;;;;6.60;3.30;;;;;;;22.56;48.89;98481.06;104298;1294;25372;-84
2022/06/18 08:46:29;;;;;;;7.10;2.90;;;;;;;22.65;50.03;98483.12;104349;1294;22678;-84
2022/06/18 08:49:24;;;;;;;5.00;2.70;;;;;;;22.66;48.73;98478.36;104332;1294;22834;-84
2022/06/18 08:52:07;;;;;;;7.00;2.50;;;;;;;22.69;48.98;98474.58;104170;1294;24386;-84
2022/06/18 08:55:09;;;;;;;5.30;3.00;;;;;;;22.82;48.00;98477.15;104127;1294;22581;-84
2022/06/18 08:57:44;;;;;;;6.10;3.00;;;;;;;23.00;48.60;98466.32;104179;1294;22598;-85
2022/06/18 09:00:21;;;;;;;11.60;4.00;;;;;;;23.14;47.82;98462.73;104377;1294;22671;-86
2022/06/18 09:02:55;;;;;;;3.90;2.90;;;;;;;23.19;46.29;98466.73;104541;1294;23619;-86
2022/06/18 09:05:52;;;;;;;8.20;5.30;;;;;;;23.13;45.01;98462.00;104695;1297;25566;-86
2022/06/18 09:08:36;;;;;;;5.80;3.00;;;;;;;23.05;43.23;98466.27;104644;1297;22570;-87
2022/06/18 09:11:21;;;;;;;7.60;2.90;;;;;;;23.00;43.08;98462.73;104590;1297;24002;-86
2022/06/18 09:13:57;;;;;;;4.40;2.50;;;;;;;23.02;43.53;98458.13;104309;1297;24318;-87
2022/06/18 09:16:44;;;;;;;5.40;2.60;;;;;;;23.14;44.28;98449.52;104382;1297;22719;-86
2022/06/18 09:19:17;;;;;;;4.00;2.20;;;;;;;23.29;43.75;98447.08;104388;1296;24455;-86
2022/06/18 09:21:53;;;;;;;5.60;3.60;;;;;;;23.45;43.05;98447.08;104618;1295;22758;-86
2022/06/18 09:24:31;;;;;;;6.10;2.60;;;;;;;23.66;43.64;98446.20;104438;1294;22580;-88
2022/06/18 09:27:05;;;;;;;8.50;3.00;;;;;;;23.86;43.62;98443.58;104609;1294;22643;-88
2022/06/18 09:30:09;;;;;;;5.90;2.70;;;;;;;24.11;44.20;98444.44;104427;1294;25269;-88
2022/06/18 09:33:04;;;;;;;5.60;2.40;;;;;;;24.44;43.29;98444.98;104574;1294;22580;-88
2022/06/18 09:35:44;;;;;;;4.00;2.50;;;;;;;24.54;44.39;98428.71;104712;1294;25269;-86
2022/06/18 09:38:26;;;;;;;7.40;2.10;;;;;;;24.58;44.09;98421.98;104729;1294;25373;-86
2022/06/18 09:40:57;;;;;;;5.10;2.10;;;;;;;24.63;43.96;98420.23;104714;1294;24265;-86
2022/06/18 09:43:48;;;;;;;3.80;1.80;;;;;;;24.84;42.67;98419.94;104431;1294;22667;-88
2022/06/18 09:46:42;;;;;;;4.60;2.10;;;;;;;25.02;41.37;98419.77;104517;1294;25524;-87
2022/06/18 09:49:10;;;;;;;6.80;2.60;;;;;;;24.93;40.73;98424.51;104843;1292;24298;-88
2022/06/18 09:51:49;;;;;;;4.60;2.40;;;;;;;24.91;40.10;98420.46;104840;1294;24318;-89
2022/06/18 09:54:18;;;;;;;4.20;2.10;;;;;;;24.83;38.97;98425.91;104938;1293;22578;-88
2022/06/18 09:56:52;;;;;;;7.40;2.20;;;;;;;24.82;39.72;98425.03;105113;1294;22793;-87
2022/06/18 09:59:27;;;;;;;3.70;2.10;;;;;;;24.84;39.79;98426.15;105094;1293;25269;-86
2022/06/18 10:01:56;;;;;;;3.10;1.90;;;;;;;24.88;39.87;98426.83;104814;1294;22632;-85
2022/06/18 10:07:27;;;;;;;4.80;2.40;;;;;;;25.00;37.93;98433.14;104698;1294;25233;-86
2022/06/18 10:10:04;;;;;;;5.90;2.50;;;;;;;24.80;38.09;98417.30;104564;1293;22675;-84
2022/06/18 10:12:43;;;;;;;3.30;2.30;;;;;;;24.76;38.81;98420.18;104751;1293;23040;-85
2022/06/18 10:15:14;;;;;;;8.20;2.90;;;;;;;24.80;38.57;98411.55;104679;1293;22582;-85
2022/06/18 10:18:10;;;;;;;5.70;2.60;;;;;;;24.96;38.43;98414.36;104794;1293;25298;-85
2022/06/18 10:21:01;;;;;;;3.80;2.20;;;;;;;24.98;37.39;98408.63;104703;1293;24312;-84
2022/06/18 10:23:39;;;;;;;4.50;2.70;;;;;;;24.84;37.63;98406.00;104756;1294;22592;-85
2022/06/18 10:26:32;;;;;;;3.80;2.30;;;;;;;24.92;38.79;98401.27;104610;1294;24216;-88
2022/06/18 10:29:00;;;;;;;7.00;2.10;;;;;;;24.98;37.20;98402.48;104741;1293;22552;-85
2022/06/18 10:32:20;;;;;;;4.30;2.70;;;;;;;24.98;38.14;98394.22;104698;1293;25261;-83
2022/06/18 10:35:01;;;;;;;4.90;1.90;;;;;;;25.02;37.69;98392.83;104280;1297;22755;-84
2022/06/18 10:37:50;;;;;;;2.80;2.30;;;;;;;24.94;36.77;98387.57;104138;1297;22702;-85
2022/06/18 10:40:55;;;;;;;6.10;2.50;;;;;;;24.87;37.93;98382.64;104064;1297;22618;-85
2022/06/18 10:43:47;;;;;;;5.30;2.90;;;;;;;24.96;37.42;98385.38;104148;1297;22587;-84
2022/06/18 10:46:21;;;;;;;3.50;1.90;;;;;;;24.86;37.75;98382.08;104132;1297;22587;-85
2022/06/18 10:48:58;;;;;;;6.70;2.00;;;;;;;24.97;37.97;98377.19;104154;1297;24728;-85
2022/06/18 10:51:28;;;;;;;5.90;2.30;;;;;;;25.12;37.07;98378.80;104271;1297;25483;-85
2022/06/18 10:54:00;;;;;;;6.50;2.40;;;;;;;25.17;36.65;98375.70;104137;1297;23250;-84
2022/06/18 10:56:32;;;;;;;4.30;1.90;;;;;;;25.31;37.06;98373.27;104138;1297;22581;-83
2022/06/18 10:59:03;;;;;;;4.70;2.10;;;;;;;25.43;36.16;98376.65;104044;1297;22665;-84
2022/06/18 11:01:49;;;;;;;4.20;2.20;;;;;;;25.49;36.42;98368.64;104218;1297;22595;-84
2022/06/18 11:04:22;;;;;;;3.80;1.90;;;;;;;25.50;35.80;98359.49;104376;1297;25655;-84
2022/06/18 11:06:57;;;;;;;4.20;2.10;;;;;;;25.52;35.71;98363.30;104861;1297;23101;-85
2022/06/18 11:09:29;;;;;;;3.40;1.90;;;;;;;25.56;36.24;98355.20;104782;1297;24285;-84
2022/06/18 11:12:02;;;;;;;5.00;2.00;;;;;;;25.70;36.32;98355.09;104501;1293;25383;-83
2022/06/18 11:14:41;;;;;;;;;;;;;;;25.88;35.54;98356.29;104697;1293;24345;-83
2022/06/18 11:17:29;;;;;;;2.40;1.80;;;;;;;25.96;35.69;98352.37;104660;1294;24433;-85
2022/06/18 11:20:31;;;;;;;5.60;2.10;;;;;;;26.11;35.82;98352.96;104441;1294;22752;-83
2022/06/18 11:23:03;;;;;;;2.70;1.80;;;;;;;26.16;35.38;98344.38;104461;1297;25510;-87
2022/06/18 11:25:49;;;;;;;3.10;1.60;;;;;;;26.12;35.32;98338.76;104452;1297;22644;-86
2022/06/18 11:28:41;;;;;;;3.20;1.80;;;;;;;26.22;36.10;98338.70;104430;1297;25519;-89
2022/06/18 11:31:20;;;;;;;3.00;1.80;;;;;;;26.54;36.45;98332.98;104131;1296;24447;-88
2022/06/18 11:34:19;;;;;;;5.30;2.00;;;;;;;26.77;35.16;98333.21;104049;1297;24374;-90
2022/06/18 11:36:50;;;;;;;5.60;1.90;;;;;;;26.86;35.63;98330.05;105036;1297;22648;-89
2022/06/18 11:39:51;;;;;;;3.70;1.70;;;;;;;27.08;35.14;98328.67;104679;1297;22731;-90
2022/06/18 11:42:47;;;;;;;3.00;2.00;;;;;;;27.02;33.55;98339.27;104523;1297;22634;-88
2022/06/18 11:45:58;;;;;;;5.40;2.10;;;;;;;26.77;33.63;98338.03;104518;1298;23064;-89
2022/06/18 11:48:37;;;;;;;4.30;2.70;;;;;;;26.66;33.67;98339.77;104055;1298;22595;-88
2022/06/18 11:51:32;;;;;;;2.80;1.50;;;;;;;26.72;32.94;98336.38;103989;1297;22563;-88
2022/06/18 11:54:31;;;;;;;2.30;1.40;;;;;;;26.66;32.69;98328.73;104206;1297;24392;-87
2022/06/18 11:57:04;;;;;;;2.70;1.60;;;;;;;26.65;32.40;98323.91;104201;1297;24281;-88
2022/06/18 11:59:43;;;;;;;3.00;2.20;;;;;;;26.54;32.16;98325.95;104374;1293;25325;-87
2022/06/18 12:02:18;;;;;;;3.30;1.80;;;;;;;26.55;32.73;98314.91;104611;1293;23303;-88
2022/06/18 12:05:09;;;;;;;4.10;1.70;;;;;;;26.68;32.70;98315.52;104567;1293;22661;-88
2022/06/18 12:07:51;;;;;;;3.60;1.50;;;;;;;26.91;33.93;98307.38;104624;1294;23363;-86
2022/06/18 12:10:28;;;;;;;2.60;1.40;;;;;;;27.09;33.24;98300.38;104654;1293;22665;-87
2022/06/18 12:13:07;;;;;;;2.40;1.70;;;;;;;27.16;33.14;98299.11;104661;1293;25384;-87
2022/06/18 12:15:48;;;;;;;2.80;1.70;;;;;;;27.24;32.36;98306.13;105576;1293;22697;-87
2022/06/18 12:18:39;;;;;;;2.70;1.70;;;;;;;27.23;31.80;98301.70;105626;1293;22698;-86
2022/06/18 12:25:35;;;;;;;4.60;1.70;;;;;;;27.24;31.67;98291.59;104610;1294;24995;-87
2022/06/18 12:28:09;;;;;;;4.70;1.40;;;;;;;27.38;31.82;98285.61;104569;1294;24310;-88
2022/06/18 12:30:42;;;;;;;6.60;1.50;;;;;;;27.75;32.36;98278.96;104602;1293;22576;-86
2022/06/18 12:33:19;;;;;;;2.00;1.50;;;;;;;28.02;31.75;98274.45;104665;1293;24230;-88
2022/06/18 12:36:03;;;;;;;2.50;1.40;;;;;;;28.13;31.29;98273.59;104584;1293;22682;-88
2022/06/18 12:39:17;;;;;;;1.90;1.50;;;;;;;28.23;30.94;98267.49;104586;1293;23561;-88
2022/06/18 12:41:52;;;;;;;2.80;1.80;;;;;;;28.30;31.23;98266.73;104565;1293;22752;-87
2022/06/18 12:44:36;;;;;;;3.20;1.50;;;;;;;28.44;31.12;98258.72;104671;1294;22673;-87
2022/06/18 12:47:29;;;;;;;3.60;1.50;;;;;;;28.63;31.24;98253.73;104593;1293;22610;-88
2022/06/18 12:50:16;;;;;;;4.10;2.20;;;;;;;28.69;30.07;98253.73;104581;1293;22631;-87
2022/06/18 12:53:09;;;;;;;3.80;1.90;;;;;;;28.42;29.48;98253.66;104598;1293;22573;-88
2022/06/18 12:55:52;;;;;;;1.90;1.40;;;;;;;28.35;29.81;98249.98;104622;1293;25325;-87
2022/06/18 12:59:13;;;;;;;3.00;1.20;;;;;;;28.42;30.05;98248.67;104793;1294;25396;-87
2022/06/18 13:02:13;;;;;;;3.90;1.50;;;;;;;28.71;30.05;98247.69;104582;1293;23333;-87
2022/06/18 13:05:11;;;;;;;3.70;1.30;;;;;;;28.88;29.74;98244.66;104609;1293;22692;-88
2022/06/18 13:07:59;;;;;;;1.90;1.20;;;;;;;28.96;29.64;98236.02;104610;1294;22735;-88
2022/06/18 13:10:53;;;;;;;4.50;2.20;;;;;;;29.17;29.62;98235.41;104708;1294;22641;-88
2022/06/18 13:14:00;;;;;;;4.40;2.30;;;;;;;29.16;28.36;98233.27;104578;1294;22710;-88
2022/06/18 13:16:38;;;;;;;3.10;1.60;;;;;;;28.79;28.21;98240.17;105038;1291;22720;-87
2022/06/18 13:19:16;;;;;;;2.20;1.40;;;;;;;28.69;28.60;98238.05;105034;1294;22554;-90
2022/06/18 13:21:47;;;;;;;2.60;1.90;;;;;;;28.63;28.77;98234.46;104844;1293;22566;-88
2022/06/18 13:30:19;;;;;;;5.50;1.50;;;;;;;28.48;28.43;98228.98;106674;1293;22670;-89
2022/06/18 13:33:09;;;;;;;1.60;1.30;;;;;;;28.21;28.74;98229.04;105947;1293;25553;-88
2022/06/18 13:36:08;;;;;;;1.80;1.60;;;;;;;28.16;28.38;98214.52;105654;1294;22508;-84
2022/06/18 13:38:36;;;;;;;3.80;1.80;;;;;;;28.12;28.65;98210.20;107893;1292;22742;-88
2022/06/18 13:41:22;;;;;;;4.50;1.80;;;;;;;28.14;28.64;98205.52;106333;1294;24178;-86
2022/06/18 13:43:55;;;;;;;3.40;2.20;;;;;;;28.25;29.19;98198.05;105090;1293;22736;-86
2022/06/18 13:46:23;;;;;;;3.90;1.80;;;;;;;28.64;28.90;98197.23;104658;1293;23111;-89
2022/06/18 13:49:13;;;;;;;3.80;1.80;;;;;;;28.71;28.59;98194.92;104693;1293;22604;-85
2022/06/18 13:51:43;;;;;;;2.50;1.70;;;;;;;28.80;28.43;98192.23;104958;1293;22628;-87
2022/06/18 13:54:17;;;;;;;4.10;1.90;;;;;;;28.83;28.34;98187.83;104887;1293;235399;-85
2022/06/18 13:56:56;;;;;;;4.30;1.90;;;;;;;28.95;28.15;98188.16;105346;1294;22585;-86
2022/06/18 13:59:24;;;;;;;4.60;2.30;;;;;;;29.11;28.04;98188.16;105264;1294;22585;-90
2022/06/18 14:01:57;;;;;;;2.80;1.70;;;;;;;29.20;28.02;98186.92;105280;1294;23166;-90
2022/06/18 14:04:28;;;;;;;7.50;2.60;;;;;;;29.28;27.63;98175.95;105016;1293;22738;-87
2022/06/18 14:06:59;;;;;;;5.50;1.90;;;;;;;29.13;28.10;98175.05;104461;1294;22569;-87
2022/06/18 14:09:32;;;;;;;3.10;1.90;;;;;;;29.28;28.18;98175.25;104312;1294;22604;-88
2022/06/18 14:12:05;;;;;;;3.80;2.10;;;;;;;29.29;27.85;98174.67;104600;1293;25680;-86
2022/06/18 14:18:20;;;;;;;6.20;2.10;;;;;;;29.77;28.62;98170.27;104658;1291;22901;-87
2022/06/18 14:25:18;;;;;;;5.30;2.20;;;;;;;29.61;27.88;98163.05;104650;1291;24243;-86
2022/06/18 14:27:48;;;;;;;3.80;2.20;;;;;;;29.58;27.62;98159.51;104519;1293;25458;-88
2022/06/18 14:30:36;;;;;;;3.60;1.90;;;;;;;29.42;27.77;98151.10;104450;1293;24333;-89